map of MHC home
MHC - Airport
Location
City:  Dalcahue, Chiloé Island, Los Lagos, Chile
Near (Alt.):Castro
Name:Mocopulli Airport
ICAO:SCPQ
IATA:MHC

Details
Type:Airport (Aerodrome, Airfield)
Use:Public/Civil
Latitude:42°20'25"S (-42.340277)
Longitude:73°42'57"W (-73.715832)
Elevation:528 ft (161 m)
Variation:9.43°E (WMM2015 magnetic declination)
-0.11° annual change
Runways:1
Longest:6562 × 148 ft (2000 × 45 m), paved

Weather
METAR:SCPQ 190700Z AUTO 17003KT //// -SHRA BKN049 08/07 Q1021
TAF:SCPQ 181049Z 1812/1900 VRB02KT 9999 SCT040 BKN090 TN05/1812Z TX14/1818Z
BECMG 1813/1815 10005KT
BECMG 1818/1819 24005KT 8000 -SHRA BKN030 PROB40
TEMPO 1820/1823 6000 TSRA BKN020 SCT025CB

Related Locations
Nearby:
Farthest:ZMKB: 12369 mi / 19907 km
Khanbogd [Khanbumbat Airport (Oyu Tolgoi Airport, Oyut Airport)], 053, MN

Find:

   beyond  
but within

Other Information
Maps:
NOTAMs:
Links:
Sources:

  
  • flag of Chile
  • flag of Los Lagos
  

Sectional Chart

Flight Planning
at skyvector.com

Satellite Image

Google Maps Satellite view

 

Copyright © 2004-2018 Karl L. Swartz. All rights reserved.
The Great Circle Mapper name and logo are trademarks of the Great Circle Mapper.
All other trademarks mentioned herein belong to their respective owners.
Please see credits for attibutions and further copyright information.

  Follow gcmap on Facebook Follow gcmap on Twitter Follow gcmap on Google+ GCmap on LinkedIn

hCard Microformat

Geo Microformat